createdAt,value
2018-07-30T00:01:33.350Z,20.74
2018-07-30T00:04:01.019Z,20.81
2018-07-30T00:06:28.670Z,20.83
2018-07-30T00:08:56.278Z,20.82
2018-07-30T00:11:23.962Z,20.97
2018-07-30T00:13:51.809Z,20.69
2018-07-30T00:16:19.505Z,20.59
2018-07-30T00:18:48.194Z,20.59
2018-07-30T00:21:15.819Z,20.70
2018-07-30T00:23:43.446Z,20.66
2018-07-30T00:26:11.079Z,20.43
2018-07-30T00:28:38.705Z,20.36
2018-07-30T00:31:06.347Z,20.39
2018-07-30T00:33:33.986Z,20.48
2018-07-30T00:36:01.588Z,20.25
2018-07-30T00:38:29.216Z,20.23
2018-07-30T00:40:56.836Z,20.30
2018-07-30T00:43:24.574Z,20.16
2018-07-30T00:45:52.200Z,20.15
2018-07-30T00:48:19.879Z,20.00
2018-07-30T00:50:47.450Z,20.14
2018-07-30T00:53:15.016Z,20.03
2018-07-30T00:55:42.650Z,20.20
2018-07-30T00:58:10.306Z,20.25
2018-07-30T01:00:37.930Z,20.01
2018-07-30T01:03:05.554Z,19.99
2018-07-30T01:05:33.214Z,20.04
2018-07-30T01:08:00.811Z,19.99
2018-07-30T01:10:28.502Z,19.92
2018-07-30T01:12:56.121Z,19.97
2018-07-30T01:15:23.795Z,19.82
2018-07-30T01:17:51.689Z,19.77
2018-07-30T01:20:19.391Z,19.73
2018-07-30T01:22:47.045Z,19.89
2018-07-30T01:25:14.670Z,20.04
2018-07-30T01:27:42.277Z,19.98
2018-07-30T01:30:09.948Z,19.86
2018-07-30T01:32:37.559Z,19.75
2018-07-30T01:35:05.189Z,19.52
2018-07-30T01:37:32.855Z,19.51
2018-07-30T01:40:00.532Z,19.56
2018-07-30T01:42:28.202Z,19.53
2018-07-30T01:44:55.885Z,19.59
2018-07-30T01:47:23.497Z,19.58
2018-07-30T01:49:51.113Z,19.57
2018-07-30T01:52:18.729Z,19.50
2018-07-30T01:54:46.353Z,19.61
2018-07-30T01:57:13.957Z,19.57
2018-07-30T01:59:41.658Z,19.44
2018-07-30T02:02:09.262Z,19.48
2018-07-30T02:04:36.882Z,19.37
2018-07-30T02:07:04.558Z,19.41
2018-07-30T02:09:32.178Z,19.41
2018-07-30T02:11:59.835Z,19.35
2018-07-30T02:14:27.494Z,19.43
2018-07-30T02:16:55.178Z,19.31
2018-07-30T02:19:22.802Z,19.26
2018-07-30T02:21:50.421Z,19.22
2018-07-30T02:24:18.066Z,19.22
2018-07-30T02:26:45.701Z,19.14
2018-07-30T02:29:13.334Z,19.20
2018-07-30T02:31:40.982Z,19.34
2018-07-30T02:34:09.064Z,19.27
2018-07-30T02:36:36.690Z,19.25
2018-07-30T02:39:06.763Z,19.05
2018-07-30T02:41:34.398Z,18.93
2018-07-30T02:44:02.055Z,18.88
2018-07-30T02:46:29.682Z,18.89
2018-07-30T02:48:57.327Z,18.80
2018-07-30T02:51:24.953Z,18.80
2018-07-30T02:53:52.604Z,18.86
2018-07-30T02:56:20.250Z,18.76
2018-07-30T02:58:47.868Z,18.77
2018-07-30T03:01:15.509Z,18.78
2018-07-30T03:03:43.158Z,18.70
2018-07-30T03:06:10.795Z,18.56
2018-07-30T03:08:38.445Z,18.53
2018-07-30T03:11:06.054Z,18.51
2018-07-30T03:13:34.050Z,18.63
2018-07-30T03:16:01.699Z,18.55
2018-07-30T03:18:29.391Z,18.47
2018-07-30T03:20:57.017Z,18.40
2018-07-30T03:23:24.650Z,18.36
2018-07-30T03:25:52.255Z,18.36
2018-07-30T03:28:19.909Z,18.42
2018-07-30T03:30:47.538Z,18.36
2018-07-30T03:33:15.174Z,18.47
2018-07-30T03:35:42.805Z,18.63
2018-07-30T03:38:10.449Z,18.47
2018-07-30T03:40:38.113Z,18.34
2018-07-30T03:43:05.774Z,18.24
2018-07-30T03:45:33.387Z,18.32
2018-07-30T03:48:01.077Z,18.43
2018-07-30T03:50:28.705Z,18.22
2018-07-30T03:52:56.322Z,18.23
2018-07-30T03:55:24.012Z,18.17
2018-07-30T03:57:51.608Z,18.13
2018-07-30T04:00:19.256Z,18.04
2018-07-30T04:02:46.882Z,18.13
2018-07-30T04:05:14.501Z,18.10
2018-07-30T04:07:42.134Z,18.11
2018-07-30T04:10:10.200Z,18.10
2018-07-30T04:12:38.086Z,18.16
2018-07-30T04:15:06.881Z,18.03
2018-07-30T04:17:34.510Z,18.04
2018-07-30T04:20:02.167Z,18.06
2018-07-30T04:22:29.778Z,18.04
2018-07-30T04:24:57.422Z,18.23
2018-07-30T04:27:25.027Z,18.43
2018-07-30T04:29:52.664Z,18.45
2018-07-30T04:32:20.299Z,18.55
2018-07-30T04:34:47.939Z,18.58
2018-07-30T04:37:15.543Z,18.78
2018-07-30T04:39:43.181Z,18.80
2018-07-30T04:42:10.842Z,18.78
2018-07-30T04:44:38.485Z,19.02
2018-07-30T04:47:06.186Z,18.97
2018-07-30T04:49:33.741Z,19.14
2018-07-30T04:52:01.335Z,19.26
2018-07-30T04:54:28.944Z,19.30
2018-07-30T04:56:56.572Z,19.45
2018-07-30T04:59:24.098Z,19.70
2018-07-30T05:01:51.673Z,19.89
2018-07-30T05:04:19.266Z,20.30
2018-07-30T05:06:46.864Z,20.41
2018-07-30T05:09:14.447Z,20.62
2018-07-30T05:11:42.011Z,20.76
2018-07-30T05:14:09.615Z,20.77
2018-07-30T05:16:37.210Z,20.84
2018-07-30T05:19:04.903Z,20.93
2018-07-30T05:21:34.302Z,20.96
2018-07-30T05:24:01.904Z,21.02
2018-07-30T05:26:30.103Z,21.16
2018-07-30T05:28:57.719Z,21.20
2018-07-30T05:31:25.334Z,21.47
2018-07-30T05:33:52.967Z,21.60
2018-07-30T05:36:20.566Z,21.84
2018-07-30T05:38:48.201Z,22.16
2018-07-30T05:41:15.789Z,22.31
2018-07-30T05:43:43.714Z,22.74
2018-07-30T05:46:11.382Z,22.88
2018-07-30T05:48:39.066Z,23.25
2018-07-30T05:51:07.814Z,23.45
2018-07-30T05:53:35.475Z,23.60
2018-07-30T05:56:03.246Z,23.80
2018-07-30T05:58:30.886Z,23.95
2018-07-30T06:00:58.818Z,23.88
2018-07-30T06:03:26.470Z,24.22
2018-07-30T06:05:54.110Z,24.35
2018-07-30T06:08:21.753Z,24.57
2018-07-30T06:10:49.394Z,24.72
2018-07-30T06:13:17.093Z,24.81
2018-07-30T06:15:44.727Z,25.06
2018-07-30T06:18:12.365Z,25.36
2018-07-30T06:20:40.082Z,25.75
2018-07-30T06:23:07.709Z,26.11
2018-07-30T06:25:35.360Z,26.21
2018-07-30T06:28:02.998Z,26.47
2018-07-30T06:30:30.655Z,26.82
2018-07-30T06:32:58.345Z,27.09
2018-07-30T06:35:25.970Z,26.87
2018-07-30T06:37:53.578Z,26.82
2018-07-30T06:40:21.221Z,26.93
2018-07-30T06:42:48.870Z,26.78
2018-07-30T06:45:16.527Z,27.14
2018-07-30T06:47:44.177Z,27.16
2018-07-30T06:50:11.814Z,27.27
2018-07-30T06:52:39.454Z,27.51
2018-07-30T06:55:07.809Z,28.10
2018-07-30T06:57:35.526Z,28.61
2018-07-30T07:00:04.225Z,28.72
2018-07-30T07:02:31.812Z,28.77
2018-07-30T07:04:59.514Z,29.29
2018-07-30T07:07:27.113Z,29.34
2018-07-30T07:09:54.823Z,29.63
2018-07-30T07:12:22.579Z,30.14
2018-07-30T07:14:50.248Z,30.88
2018-07-30T07:17:17.998Z,30.78
2018-07-30T07:19:45.675Z,31.48
2018-07-30T07:22:13.373Z,31.88
2018-07-30T07:24:41.034Z,32.11
2018-07-30T07:27:08.659Z,32.20
2018-07-30T07:29:36.309Z,32.35
2018-07-30T07:32:04.056Z,32.62
2018-07-30T07:34:31.754Z,33.40
2018-07-30T07:36:59.471Z,33.80
2018-07-30T07:39:27.146Z,33.93
2018-07-30T07:41:54.799Z,33.84
2018-07-30T07:44:22.565Z,34.08
2018-07-30T07:46:50.222Z,34.71
2018-07-30T07:49:17.878Z,34.86
2018-07-30T07:51:45.560Z,35.47
2018-07-30T07:54:13.254Z,35.81
2018-07-30T07:56:40.850Z,35.97
2018-07-30T07:59:08.591Z,36.75
2018-07-30T08:01:36.174Z,37.05
2018-07-30T08:04:03.851Z,37.24
2018-07-30T08:06:31.492Z,37.73
2018-07-30T08:08:59.091Z,38.06
2018-07-30T08:11:26.738Z,37.70
2018-07-30T08:13:54.401Z,38.30
2018-07-30T08:16:22.015Z,38.85
2018-07-30T08:18:49.640Z,38.87
2018-07-30T08:21:17.364Z,39.35
2018-07-30T08:23:44.970Z,38.93
2018-07-30T08:26:12.594Z,39.62
2018-07-30T08:28:40.163Z,39.83
2018-07-30T08:31:07.826Z,40.67
2018-07-30T08:33:35.553Z,41.07
2018-07-30T08:36:03.311Z,40.57
2018-07-30T08:38:30.870Z,40.98
2018-07-30T08:40:58.651Z,41.00
2018-07-30T08:43:26.346Z,41.29
2018-07-30T08:45:54.086Z,40.69
2018-07-30T08:48:21.727Z,40.58
2018-07-30T08:50:49.302Z,40.00
2018-07-30T08:53:17.030Z,39.61
2018-07-30T08:55:44.810Z,40.22
2018-07-30T08:58:12.517Z,39.66
2018-07-30T09:00:40.211Z,39.55
2018-07-30T09:03:07.915Z,40.32
2018-07-30T09:05:35.534Z,39.58
2018-07-30T09:08:03.133Z,40.70
2018-07-30T09:10:30.761Z,40.48
2018-07-30T09:12:58.386Z,41.09
2018-07-30T09:15:26.042Z,41.19
2018-07-30T09:17:53.646Z,41.55
2018-07-30T09:20:21.916Z,41.47
2018-07-30T09:22:49.523Z,41.88
2018-07-30T09:25:17.158Z,41.62
2018-07-30T09:27:44.871Z,40.90
2018-07-30T09:30:12.491Z,41.37
2018-07-30T09:32:40.137Z,42.20
2018-07-30T09:35:07.803Z,42.85
2018-07-30T09:37:35.516Z,43.31
2018-07-30T09:40:03.171Z,43.82
2018-07-30T09:42:30.761Z,44.07
2018-07-30T09:44:58.511Z,44.48
2018-07-30T09:47:26.107Z,44.93
2018-07-30T09:49:53.719Z,43.89
2018-07-30T09:52:21.309Z,43.37
2018-07-30T09:54:48.967Z,42.96
2018-07-30T09:57:16.529Z,43.62
2018-07-30T09:59:44.153Z,44.04
2018-07-30T10:02:11.776Z,44.44
2018-07-30T10:04:42.866Z,44.06
2018-07-30T10:07:10.727Z,43.73
2018-07-30T10:09:38.843Z,43.13
2018-07-30T10:12:06.495Z,42.96
2018-07-30T10:14:34.157Z,43.17
2018-07-30T10:17:01.808Z,43.34
2018-07-30T10:19:29.410Z,43.20
2018-07-30T10:21:57.022Z,42.48
2018-07-30T10:24:24.714Z,41.29
2018-07-30T10:26:52.326Z,40.56
2018-07-30T10:29:19.996Z,39.70
2018-07-30T10:31:47.619Z,39.64
2018-07-30T10:34:15.273Z,40.20
2018-07-30T10:36:42.923Z,40.69
2018-07-30T10:39:10.542Z,40.99
2018-07-30T10:41:38.758Z,42.00
2018-07-30T10:44:06.460Z,41.91
2018-07-30T10:46:34.113Z,42.38
2018-07-30T10:49:01.756Z,42.59
2018-07-30T10:51:29.413Z,41.99
2018-07-30T10:53:57.053Z,40.84
2018-07-30T10:56:24.722Z,41.36
2018-07-30T10:58:53.127Z,41.25
2018-07-30T11:01:20.835Z,41.89
2018-07-30T11:03:48.563Z,41.82
2018-07-30T11:06:16.242Z,42.18
2018-07-30T11:08:43.899Z,41.68
2018-07-30T11:11:11.556Z,41.62
2018-07-30T11:13:39.184Z,40.80
2018-07-30T11:16:06.801Z,41.47
2018-07-30T11:18:34.585Z,41.10
2018-07-30T11:21:02.275Z,41.28
2018-07-30T11:23:29.903Z,40.59
2018-07-30T11:25:58.134Z,39.54
2018-07-30T11:28:25.789Z,39.41
2018-07-30T11:30:53.429Z,39.94
2018-07-30T11:33:21.151Z,39.65
2018-07-30T11:35:48.766Z,39.70
2018-07-30T11:38:16.394Z,38.86
2018-07-30T11:40:44.401Z,38.74
2018-07-30T11:43:12.068Z,38.23
2018-07-30T11:45:39.739Z,37.75
2018-07-30T11:48:07.379Z,38.21
2018-07-30T11:50:35.048Z,37.94
2018-07-30T11:53:02.705Z,37.96
2018-07-30T11:55:30.361Z,37.65
2018-07-30T11:57:58.209Z,37.71
2018-07-30T12:00:25.843Z,37.62
2018-07-30T12:02:53.751Z,36.92
2018-07-30T12:05:21.431Z,36.60
2018-07-30T12:07:49.039Z,36.19
2018-07-30T12:10:16.709Z,36.75
2018-07-30T12:12:44.353Z,36.76
2018-07-30T12:15:12.006Z,36.97
2018-07-30T12:17:39.649Z,37.23
2018-07-30T12:20:07.362Z,35.92
2018-07-30T12:22:35.029Z,35.63
2018-07-30T12:25:02.764Z,35.76
2018-07-30T12:27:30.426Z,35.87
2018-07-30T12:29:58.140Z,36.25
2018-07-30T12:32:25.748Z,35.96
2018-07-30T12:34:53.399Z,36.03
2018-07-30T12:37:21.362Z,36.46
2018-07-30T12:39:49.020Z,36.63
2018-07-30T12:42:16.654Z,36.45
2018-07-30T12:44:44.371Z,36.25
2018-07-30T12:47:12.701Z,35.92
2018-07-30T12:49:40.686Z,36.10
2018-07-30T12:52:08.323Z,35.54
2018-07-30T12:54:35.969Z,35.66
2018-07-30T12:57:03.918Z,35.37
2018-07-30T12:59:31.595Z,35.07
2018-07-30T13:01:59.230Z,34.65
2018-07-30T13:04:26.865Z,34.49
2018-07-30T13:06:54.574Z,34.63
2018-07-30T13:09:22.221Z,34.54
2018-07-30T13:11:49.853Z,34.33
2018-07-30T13:14:17.530Z,34.11
2018-07-30T13:16:45.242Z,34.00
2018-07-30T13:19:12.849Z,33.96
2018-07-30T13:21:40.509Z,34.06
2018-07-30T13:24:08.158Z,34.19
2018-07-30T13:26:35.939Z,34.26
2018-07-30T13:29:03.591Z,34.01
2018-07-30T13:31:31.306Z,34.29
2018-07-30T13:33:58.981Z,34.05
2018-07-30T13:36:26.660Z,34.07
2018-07-30T13:38:54.299Z,34.31
2018-07-30T13:41:21.991Z,34.31
2018-07-30T13:43:49.945Z,34.10
2018-07-30T13:46:17.632Z,33.89
2018-07-30T13:48:45.278Z,33.91
2018-07-30T13:51:12.930Z,34.05
2018-07-30T13:53:40.624Z,34.23
2018-07-30T13:56:08.255Z,34.37
2018-07-30T13:58:35.909Z,34.33
2018-07-30T14:01:03.598Z,33.84
2018-07-30T14:03:31.310Z,33.75
2018-07-30T14:05:58.974Z,33.80
2018-07-30T14:08:26.654Z,33.87
2018-07-30T14:10:54.319Z,33.65
2018-07-30T14:13:21.989Z,33.33
2018-07-30T14:15:50.710Z,33.13
2018-07-30T14:18:18.388Z,33.19
2018-07-30T14:20:46.050Z,33.23
2018-07-30T14:23:13.671Z,33.11
2018-07-30T14:25:41.319Z,33.18
2018-07-30T14:28:08.965Z,33.27
2018-07-30T14:30:36.644Z,33.15
2018-07-30T14:33:04.330Z,32.97
2018-07-30T14:35:32.595Z,33.07
2018-07-30T14:38:01.160Z,33.18
2018-07-30T14:40:28.785Z,32.94
2018-07-30T14:42:56.531Z,33.18
2018-07-30T14:45:24.266Z,33.29
2018-07-30T14:47:52.018Z,33.30
2018-07-30T14:50:19.684Z,33.27
2018-07-30T14:52:47.408Z,33.07
2018-07-30T14:55:15.146Z,33.27
2018-07-30T14:57:42.886Z,33.21
2018-07-30T15:00:10.621Z,33.22
2018-07-30T15:02:38.307Z,33.21
2018-07-30T15:05:06.248Z,33.02
2018-07-30T15:07:34.002Z,33.10
2018-07-30T15:10:01.707Z,33.09
2018-07-30T15:12:29.472Z,33.12
2018-07-30T15:14:57.192Z,33.21
2018-07-30T15:17:24.886Z,33.10
2018-07-30T15:19:52.591Z,33.22
2018-07-30T15:22:20.355Z,33.47
2018-07-30T15:24:48.047Z,33.44
2018-07-30T15:27:15.785Z,33.51
2018-07-30T15:29:45.306Z,33.37
2018-07-30T15:32:13.075Z,33.44
2018-07-30T15:34:40.802Z,33.21
2018-07-30T15:37:08.494Z,33.21
2018-07-30T15:39:36.226Z,33.16
2018-07-30T15:42:04.825Z,33.17
2018-07-30T15:44:32.522Z,33.20
2018-07-30T15:47:00.275Z,33.25
2018-07-30T15:49:27.996Z,33.13
2018-07-30T15:51:55.724Z,33.02
2018-07-30T15:54:23.411Z,32.88
2018-07-30T15:56:51.164Z,32.95
2018-07-30T15:59:18.839Z,32.88
2018-07-30T16:01:46.569Z,32.92
2018-07-30T16:04:14.281Z,32.91
2018-07-30T16:06:41.925Z,32.81
2018-07-30T16:09:09.611Z,32.95
2018-07-30T16:11:37.699Z,32.71
2018-07-30T16:14:05.498Z,32.83
2018-07-30T16:16:33.238Z,32.70
2018-07-30T16:19:01.286Z,32.62
2018-07-30T16:21:28.985Z,32.63
2018-07-30T16:23:56.739Z,32.68
2018-07-30T16:26:24.483Z,32.74
2018-07-30T16:28:52.159Z,32.56
2018-07-30T16:31:20.154Z,32.58
2018-07-30T16:33:47.907Z,32.50
2018-07-30T16:36:15.688Z,32.50
2018-07-30T16:38:43.510Z,32.48
2018-07-30T16:41:11.322Z,32.39
2018-07-30T16:43:39.093Z,32.41
2018-07-30T16:46:06.806Z,32.40
2018-07-30T16:48:34.509Z,32.48
2018-07-30T16:51:02.257Z,32.36
2018-07-30T16:53:29.923Z,32.38
2018-07-30T16:55:57.598Z,32.26
2018-07-30T16:58:26.236Z,32.26
2018-07-30T17:00:53.958Z,32.20
2018-07-30T17:03:21.649Z,32.20
2018-07-30T17:05:49.413Z,32.13
2018-07-30T17:08:17.226Z,32.07
2018-07-30T17:10:44.900Z,32.17
2018-07-30T17:13:12.647Z,32.03
2018-07-30T17:15:40.372Z,32.13
2018-07-30T17:18:08.101Z,31.99
2018-07-30T17:20:36.118Z,32.00
2018-07-30T17:23:03.966Z,31.97
2018-07-30T17:25:32.351Z,31.99
2018-07-30T17:28:01.193Z,31.95
2018-07-30T17:30:29.124Z,31.95
2018-07-30T17:32:57.095Z,31.94
2018-07-30T17:35:24.885Z,31.92
2018-07-30T17:37:53.394Z,31.76
2018-07-30T17:40:21.373Z,31.68
2018-07-30T17:42:49.381Z,31.43
2018-07-30T17:45:17.133Z,31.26
2018-07-30T17:47:45.401Z,31.20
2018-07-30T17:50:13.136Z,31.04
2018-07-30T17:52:41.570Z,30.99
2018-07-30T17:55:09.611Z,30.76
2018-07-30T17:57:37.704Z,30.66
2018-07-30T18:00:06.224Z,30.60
2018-07-30T18:02:34.086Z,30.49
2018-07-30T18:05:01.841Z,30.47
2018-07-30T18:07:29.553Z,30.34
2018-07-30T18:09:57.382Z,30.33
2018-07-30T18:12:25.115Z,30.22
2018-07-30T18:14:52.855Z,30.15
2018-07-30T18:17:20.526Z,30.16
2018-07-30T18:19:48.301Z,30.00
2018-07-30T18:22:16.967Z,30.03
2018-07-30T18:24:44.785Z,29.98
2018-07-30T18:27:12.516Z,30.00
2018-07-30T18:29:40.212Z,29.90
2018-07-30T18:32:08.009Z,29.86
2018-07-30T18:34:36.728Z,29.83
2018-07-30T18:37:04.497Z,29.76
2018-07-30T18:39:32.284Z,29.78
2018-07-30T18:42:00.039Z,29.77
2018-07-30T18:44:27.744Z,29.68
2018-07-30T18:46:55.480Z,29.58
2018-07-30T18:49:23.281Z,29.52
2018-07-30T18:51:51.559Z,29.41
2018-07-30T18:54:19.290Z,29.34
2018-07-30T18:56:47.020Z,29.27
2018-07-30T18:59:14.786Z,29.36
2018-07-30T19:01:42.526Z,29.34
2018-07-30T19:04:10.282Z,29.27
2018-07-30T19:06:38.076Z,29.32
2018-07-30T19:09:06.415Z,29.30
2018-07-30T19:11:35.045Z,29.11
2018-07-30T19:14:03.081Z,28.94
2018-07-30T19:16:30.830Z,28.92
2018-07-30T19:18:58.563Z,28.86
2018-07-30T19:21:26.515Z,28.78
2018-07-30T19:23:54.248Z,28.77
2018-07-30T19:26:22.266Z,28.64
2018-07-30T19:28:50.047Z,28.51
2018-07-30T19:31:17.790Z,28.49
2018-07-30T19:33:45.853Z,28.52
2018-07-30T19:36:13.852Z,28.37
2018-07-30T19:38:41.658Z,28.40
2018-07-30T19:41:10.000Z,28.32
2018-07-30T19:43:37.710Z,28.31
2018-07-30T19:46:05.481Z,28.27
2018-07-30T19:48:33.181Z,28.18
2018-07-30T19:51:01.939Z,28.08
2018-07-30T19:53:29.923Z,28.03
2018-07-30T19:55:57.960Z,27.99
2018-07-30T19:58:26.117Z,27.90
2018-07-30T20:00:53.558Z,27.81
2018-07-30T20:03:22.603Z,27.63
